M I D A S
Marine Information and Data Acquisition System
Tripno 64 of the Zeeleeuw from 2001-10-29 07:55:50 to 2001-10-29 14:55:00
Back to CruiseResearch ActivitiesStationsMapUnderway DataData graphs

EquipmentUnitsComments
TimeDGPSUTC
LatitudeDGPSDM.mWGS84
LongitudeDGPSDM.mWGS84
SpeedMeteo Stationm/sRelative wind speed
DirectionMeteo StationdegRelative wind direction
TemperatureMeteo Stationdeg CelciusAir temperature
PressureMeteo StationPaAtmospheric pressure
HumidityMeteo Station%Relative humidity
Missing or incorrect values are displayed as -999
Metereological data collected by the RV Zeeleeuw from 2001-10-29 07:55:50 to 2001-10-29 14:55:00
Time Latitude Longitude Speed Direction Temperature Pressure Humidity
2001-10-29 08:09 51°13.689 2°55.905 4.8 145 13.5 102520 76
2001-10-29 08:10 51°13.689 2°55.905 5.1 143 13.5 102520 76
2001-10-29 08:11 51°13.689 2°55.905 4.9 131 13.6 102520 76
2001-10-29 08:12 51°13.689 2°55.906 3.5 134 13.6 102520 76
2001-10-29 08:13 51°13.689 2°55.905 2.7 135 13.6 102520 75
2001-10-29 08:14 51°13.688 2°55.904 5.2 142 13.6 102520 74
2001-10-29 08:15 51°13.688 2°55.905 4.7 152 13.6 102510 74
2001-10-29 08:16 51°13.688 2°55.905 5.2 185 13.6 102510 74
2001-10-29 08:17 51°13.688 2°55.905 4.7 163 13.6 102510 74
2001-10-29 08:18 51°13.688 2°55.905 4 145 13.7 102510 75
2001-10-29 08:19 51°13.688 2°55.904 4.4 141 13.7 102510 74
2001-10-29 08:20 51°13.688 2°55.904 3.1 141 13.7 102510 74
2001-10-29 08:21 51°13.688 2°55.905 4.9 144 13.8 102510 74
2001-10-29 08:22 51°13.687 2°55.904 4.1 144 13.8 102510 74
2001-10-29 08:23 51°13.687 2°55.905 6.1 144 13.8 102510 74
2001-10-29 08:24 51°13.687 2°55.905 4.8 145 13.8 102510 74
2001-10-29 08:25 51°13.688 2°55.905 5.6 154 13.8 102510 73
2001-10-29 08:26 51°13.688 2°55.906 4 150 13.8 102510 73
2001-10-29 08:27 51°13.687 2°55.906 2.6 145 13.9 102510 74
2001-10-29 08:28 51°13.687 2°55.906 4.5 133 13.9 102510 74
2001-10-29 08:29 51°13.687 2°55.906 5.7 148 13.9 102510 74
2001-10-29 08:30 51°13.687 2°55.905 4.4 140 13.9 102510 74
2001-10-29 08:31 51°13.687 2°55.906 3.4 170 13.9 102500 74
2001-10-29 08:32 51°13.688 2°55.906 4.7 147 13.9 102500 73
2001-10-29 08:34 51°13.688 2°55.906 4.9 149 13.9 102500 74
2001-10-29 08:35 51°13.688 2°55.906 2.8 155 14 102500 74
2001-10-29 08:36 51°13.688 2°55.906 3.6 126 14 102500 74
2001-10-29 08:37 51°13.688 2°55.906 1.9 161 14 102510 74
2001-10-29 08:38 51°13.687 2°55.906 2 149 14 102510 74
2001-10-29 08:39 51°13.687 2°55.906 2.9 139 14 102510 74
2001-10-29 08:40 51°13.687 2°55.906 3.9 168 14 102510 74
2001-10-29 08:41 51°13.687 2°55.905 3.5 173 14 102510 74
2001-10-29 08:42 51°13.687 2°55.906 5.1 152 14.1 102510 74
2001-10-29 08:43 51°13.687 2°55.906 3.8 146 14.1 102510 74
2001-10-29 08:44 51°13.688 2°55.906 5.4 146 14.1 102510 73
2001-10-29 08:45 51°13.688 2°55.906 4.7 139 14.2 102510 73
2001-10-29 08:46 51°13.687 2°55.907 4.9 129 14.2 102510 73
2001-10-29 08:47 51°13.685 2°55.905 5.2 111 14.2 102510 73
2001-10-29 08:48 51°13.69 2°55.879 5.8 131 14.2 102510 73
2001-10-29 08:49 51°13.694 2°55.803 3.2 115 14.3 102510 73
2001-10-29 08:50 51°13.688 2°55.742 4 124 14.3 102520 74
2001-10-29 08:51 51°13.701 2°55.737 1.1 27 14.4 102520 74
2001-10-29 08:52 51°13.764 2°55.691 3.6 328 14.4 102520 74
2001-10-29 08:53 51°13.873 2°55.596 11.4 338 14.4 102510 74
2001-10-29 08:54 51°14.018 2°55.493 8.2 325 14.4 102510 74
2001-10-29 08:55 51°14.167 2°55.382 7.4 334 14.5 102520 75
2001-10-29 08:56 51°14.289 2°55.213 15.1 332 14.5 102510 77
2001-10-29 08:57 51°14.397 2°55.016 16.5 330 14.5 102500 76
2001-10-29 08:58 51°14.453 2°54.798 16.3 302 14.5 102500 77
2001-10-29 08:59 51°14.44 2°54.544 16.3 299 14.5 102510 77
2001-10-29 09:00 51°14.416 2°54.29 16.6 294 14.5 102510 75
2001-10-29 09:01 51°14.382 2°54.029 16.3 287 14.5 102510 75
2001-10-29 09:02 51°14.289 2°53.782 17 284 14.5 102500 75
2001-10-29 09:03 51°14.19 2°53.522 17.8 285 14.5 102510 76
2001-10-29 09:04 51°14.088 2°53.252 16.5 286 14.6 102510 76
2001-10-29 09:05 51°13.985 2°52.98 17 276 14.6 102500 77
2001-10-29 09:06 51°13.884 2°52.702 18 283 14.6 102480 75
2001-10-29 09:07 51°13.784 2°52.435 17.9 285 14.5 102480 73
2001-10-29 09:08 51°13.684 2°52.162 17.9 287 14.6 102470 73
2001-10-29 09:09 51°13.581 2°51.893 17 282 14.6 102480 73
2001-10-29 09:10 51°13.477 2°51.623 19.3 287 14.6 102480 75
2001-10-29 09:11 51°13.384 2°51.344 17.3 285 14.6 102490 74
2001-10-29 09:12 51°13.285 2°51.071 17.5 285 14.6 102500 75
2001-10-29 09:13 51°13.185 2°50.793 16.5 288 14.6 102500 75
2001-10-29 09:14 51°13.09 2°50.526 16.3 282 14.6 102500 74
2001-10-29 09:15 51°12.987 2°50.259 17.8 285 14.6 102500 75
2001-10-29 09:16 51°12.884 2°49.991 18.2 286 14.7 102500 76
2001-10-29 09:17 51°12.782 2°49.72 18.1 289 14.6 102500 75
2001-10-29 09:18 51°12.677 2°49.454 18.3 285 14.6 102490 75
2001-10-29 09:19 51°12.581 2°49.182 19.1 284 14.6 102500 74
2001-10-29 09:20 51°12.478 2°48.911 16.7 280 14.7 102490 74
2001-10-29 09:21 51°12.377 2°48.649 17.5 281 14.7 102490 75
2001-10-29 09:22 51°12.27 2°48.388 18.4 279 14.7 102490 76
2001-10-29 09:23 51°12.171 2°48.122 18.9 280 14.7 102490 75
2001-10-29 09:24 51°12.077 2°47.852 19.2 284 14.7 102490 74
2001-10-29 09:25 51°11.982 2°47.583 19.3 283 14.7 102480 74
2001-10-29 09:26 51°11.88 2°47.32 16.3 278 14.7 102480 74
2001-10-29 09:27 51°11.786 2°47.042 16.8 279 14.7 102470 73
2001-10-29 09:28 51°11.692 2°46.774 17.7 277 14.7 102470 73
2001-10-29 09:29 51°11.598 2°46.499 16.2 281 14.7 102480 75
2001-10-29 09:30 51°11.502 2°46.226 16.6 278 14.7 102480 75
2001-10-29 09:31 51°11.408 2°45.951 18.3 282 14.7 102490 74
2001-10-29 09:32 51°11.32 2°45.672 16.5 274 14.7 102490 76
2001-10-29 09:33 51°11.223 2°45.4 16.2 282 14.7 102490 77
2001-10-29 09:34 51°11.127 2°45.128 16.5 288 14.7 102490 75
2001-10-29 09:35 51°11.027 2°44.86 16 274 14.7 102480 75
2001-10-29 09:36 51°10.928 2°44.591 16.6 275 14.6 102480 74
2001-10-29 09:37 51°10.829 2°44.325 17.1 270 14.6 102490 76
2001-10-29 09:38 51°10.757 2°44.036 19.1 283 14.6 102490 77
2001-10-29 09:39 51°10.679 2°43.744 18.2 284 14.6 102480 76
2001-10-29 09:40 51°10.606 2°43.461 17.4 280 14.7 102480 75
2001-10-29 09:41 51°10.532 2°43.172 18.4 287 14.7 102480 77
2001-10-29 09:42 51°10.458 2°42.877 18 288 14.7 102490 77
2001-10-29 09:43 51°10.391 2°42.586 17.6 290 14.7 102480 76
2001-10-29 09:44 51°10.333 2°42.287 18.7 287 14.7 102480 75
2001-10-29 09:45 51°10.263 2°41.996 17 284 14.6 102480 75
2001-10-29 09:46 51°10.2 2°41.701 17.6 290 14.7 102490 78
2001-10-29 09:47 51°10.13 2°41.409 18.6 287 14.7 102480 76
2001-10-29 09:48 51°10.081 2°41.108 19.8 285 14.7 102490 76
2001-10-29 09:49 51°10.032 2°40.803 19.7 288 14.7 102480 77
2001-10-29 09:50 51°9.977 2°40.511 19 282 14.7 102480 76
2001-10-29 09:51 51°9.932 2°40.209 18.8 282 14.7 102480 75
2001-10-29 09:52 51°9.883 2°39.908 19.2 283 14.7 102490 76
2001-10-29 09:53 51°9.815 2°39.61 18.9 285 14.7 102480 77
2001-10-29 09:54 51°9.757 2°39.318 17.6 286 14.6 102480 76
2001-10-29 09:55 51°9.711 2°39.01 19.5 286 14.6 102490 76
2001-10-29 09:56 51°9.632 2°38.728 18.3 275 14.7 102470 74
2001-10-29 09:57 51°9.58 2°38.438 20.7 289 14.7 102480 75
2001-10-29 09:58 51°9.562 2°38.134 19.5 289 14.7 102480 75
2001-10-29 09:59 51°9.555 2°37.822 18.4 286 14.7 102470 75
2001-10-29 10:00 51°9.553 2°37.512 17.7 288 14.7 102470 74
2001-10-29 10:01 51°9.544 2°37.197 19.2 285 14.8 102480 77
2001-10-29 10:02 51°9.513 2°36.897 20.4 285 14.7 102470 75
2001-10-29 10:03 51°9.482 2°36.591 20.2 284 14.7 102470 75
2001-10-29 10:04 51°9.48 2°36.274 18.4 286 14.7 102470 75
2001-10-29 10:05 51°9.474 2°35.96 18.6 288 14.8 102460 74
2001-10-29 10:06 51°9.47 2°35.651 18.4 287 14.8 102470 75
2001-10-29 10:07 51°9.48 2°35.331 21.3 289 14.8 102460 75
2001-10-29 10:08 51°9.504 2°35.026 18.4 284 14.8 102470 75
2001-10-29 10:09 51°9.577 2°34.73 20.1 286 14.9 102460 77
2001-10-29 10:10 51°9.692 2°34.473 20.2 307 14.8 102440 75
2001-10-29 10:11 51°9.862 2°34.279 9.5 324 14.8 102460 75
2001-10-29 10:12 51°10.09 2°34.292 4.7 109 14.7 102450 75
2001-10-29 10:13 51°10.278 2°34.506 0.4 347 14.7 102480 74
2001-10-29 10:14 51°10.474 2°34.732 4.2 346 14.7 102470 77
2001-10-29 10:15 51°10.658 2°34.958 2.2 161 14.7 102470 77
2001-10-29 10:16 51°10.839 2°35.206 1.5 135 14.6 102470 76
2001-10-29 10:17 51°11.03 2°35.446 1.3 199 14.6 102480 77
2001-10-29 10:18 51°11.203 2°35.707 1.3 173 14.7 102480 78
2001-10-29 10:19 51°11.38 2°35.98 2.9 152 14.7 102480 78
2001-10-29 10:20 51°11.547 2°36.247 2.7 129 14.7 102470 78
2001-10-29 10:21 51°11.726 2°36.501 3.1 141 14.6 102480 77
2001-10-29 10:22 51°11.908 2°36.764 1.4 92 14.6 102480 77
2001-10-29 10:23 51°12.08 2°37.018 0.3 18 14.6 102480 76
2001-10-29 10:24 51°12.265 2°37.267 0.5 339 14.5 102470 76
2001-10-29 10:25 51°12.453 2°37.52 3.5 133 14.5 102480 77
2001-10-29 10:26 51°12.642 2°37.751 2.1 358 14.5 102470 77
2001-10-29 10:27 51°12.828 2°37.998 2.3 202 14.5 102460 76
2001-10-29 10:28 51°13.015 2°38.241 0.4 28 14.5 102470 77
2001-10-29 10:29 51°13.206 2°38.493 2.8 264 14.5 102460 78
2001-10-29 10:30 51°13.397 2°38.735 2.9 109 14.5 102460 77
2001-10-29 10:31 51°13.593 2°38.955 7.9 163 14.4 102450 77
2001-10-29 10:32 51°13.809 2°39.079 10.7 334 14.4 102430 78
2001-10-29 10:33 51°14.027 2°39.028 15.7 354 14.4 102410 77
2001-10-29 10:34 51°14.136 2°38.776 20.4 306 14.4 102410 77
2001-10-29 10:35 51°14.137 2°38.473 17.6 298 14.4 102410 77
2001-10-29 10:36 51°14.07 2°38.186 17.5 297 14.4 102460 78
2001-10-29 10:37 51°14.006 2°37.894 17 294 14.4 102460 79
2001-10-29 10:38 51°13.93 2°37.606 17.1 283 14.3 102450 79
2001-10-29 10:39 51°13.85 2°37.325 17.9 292 14.3 102460 80
2001-10-29 10:40 51°13.768 2°37.042 17.7 294 14.2 102470 79
2001-10-29 10:41 51°13.689 2°36.765 18.4 295 14.2 102480 80
2001-10-29 10:42 51°13.605 2°36.486 16.9 287 14.2 102470 80
2001-10-29 10:43 51°13.523 2°36.21 16.5 291 14.1 102470 80
2001-10-29 10:44 51°13.44 2°35.928 16.3 292 14 102450 80
2001-10-29 10:45 51°13.356 2°35.654 17.1 292 14 102460 79
2001-10-29 10:46 51°13.269 2°35.38 16.6 297 14 102460 80
2001-10-29 10:47 51°13.182 2°35.104 16.9 288 14.1 102460 81
2001-10-29 10:48 51°13.093 2°34.829 19.2 293 14 102460 81
2001-10-29 10:49 51°13.007 2°34.558 17.4 287 14 102450 81
2001-10-29 10:50 51°12.916 2°34.275 15.8 298 14 102440 82
2001-10-29 10:51 51°12.834 2°33.992 15.6 295 14 102450 81
2001-10-29 10:52 51°12.75 2°33.708 16.4 288 14 102450 81
2001-10-29 10:53 51°12.667 2°33.425 15.9 293 14 102460 82
2001-10-29 10:54 51°12.583 2°33.141 17.6 297 14 102450 82
2001-10-29 10:55 51°12.499 2°32.859 15.1 293 14 102460 82
2001-10-29 10:56 51°12.415 2°32.577 17.9 291 14.1 102450 82
2001-10-29 10:57 51°12.333 2°32.3 17.6 297 14.1 102450 81
2001-10-29 10:58 51°12.248 2°32.015 17.5 297 14.1 102450 81
2001-10-29 10:59 51°12.165 2°31.742 17.2 297 14.1 102460 81
2001-10-29 11:00 51°12.077 2°31.456 16.8 295 14.1 102470 82
2001-10-29 11:01 51°11.989 2°31.174 18 299 14 102450 79
2001-10-29 11:02 51°11.899 2°30.893 16.4 292 14.1 102450 80
2001-10-29 11:03 51°11.813 2°30.608 17.9 299 14.1 102450 79
2001-10-29 11:04 51°11.732 2°30.321 18.4 296 14.1 102450 79
2001-10-29 11:05 51°11.647 2°30.039 18.8 301 14.1 102460 79
2001-10-29 11:06 51°11.562 2°29.756 18.7 296 14.1 102450 78
2001-10-29 11:07 51°11.477 2°29.475 18.5 296 14.1 102450 79
2001-10-29 11:08 51°11.391 2°29.196 17.8 297 14.1 102440 78
2001-10-29 11:09 51°11.322 2°28.907 17.9 301 14.1 102440 80
2001-10-29 11:10 51°11.272 2°28.605 20.3 296 14.1 102440 79
2001-10-29 11:11 51°11.241 2°28.298 17.3 298 14.1 102440 79
2001-10-29 11:12 51°11.228 2°27.984 18.8 312 14.2 102440 79
2001-10-29 11:13 51°11.214 2°27.672 20.1 313 14.1 102430 79
2001-10-29 11:14 51°11.198 2°27.359 19.4 312 14.1 102430 79
2001-10-29 11:15 51°11.191 2°27.045 22 307 14.1 102420 79
2001-10-29 11:16 51°11.187 2°26.732 19.7 308 14.1 102440 78
2001-10-29 11:17 51°11.182 2°26.418 19.8 309 14 102440 78
2001-10-29 11:18 51°11.178 2°26.108 19.9 310 14 102400 78
2001-10-29 11:19 51°11.175 2°25.791 20 311 14 102400 78
2001-10-29 11:20 51°11.176 2°25.482 17.3 318 14 102380 77
2001-10-29 11:21 51°11.241 2°25.186 18.5 336 14 102400 79
2001-10-29 11:22 51°11.42 2°25.001 9.6 355 14 102390 79
2001-10-29 11:23 51°11.657 2°25.017 5.7   14 102390 79
2001-10-29 11:24 51°11.89 2°25.023 6.6 354 14 102380 80
2001-10-29 11:25 51°12.13 2°25.058 6.1 358 13.9 102390 79
2001-10-29 11:26 51°12.373 2°25.106 6.6 4 13.9 102390 79
2001-10-29 11:27 51°12.61 2°25.152 8.6 358 13.9 102390 80
2001-10-29 11:28 51°12.837 2°25.301 6 125 13.9 102400 81
2001-10-29 11:29 51°13.049 2°25.49 1.7 316 13.8 102390 79
2001-10-29 11:30 51°13.205 2°25.811 0.8 77 13.8 102410 79
2001-10-29 11:31 51°13.343 2°26.145 0.7 48 13.8 102410 80
2001-10-29 11:32 51°13.494 2°26.462 0.7 78 13.8 102410 80
2001-10-29 11:33 51°13.633 2°26.8 1.5 69 13.8 102410 79
2001-10-29 11:34 51°13.783 2°27.14 2.5 74 13.8 102410 80
2001-10-29 11:35 51°13.925 2°27.468 1.6 95 13.8 102400 80
2001-10-29 11:36 51°14.072 2°27.792 2.5 89 13.8 102400 80
2001-10-29 11:37 51°14.215 2°28.135 1.7 92 13.8 102400 79
2001-10-29 11:38 51°14.359 2°28.461 1.9 100 13.8 102370 79
2001-10-29 11:39 51°14.504 2°28.796 1.4 72 13.9 102370 81
2001-10-29 11:40 51°14.652 2°29.134 0.9 90 13.9 102370 80
2001-10-29 11:41 51°14.788 2°29.462 2.7 79 14 102370 81
2001-10-29 11:42 51°14.944 2°29.785 1.8 77 13.9 102370 79
2001-10-29 11:43 51°15.103 2°30.096 0.8 106 13.9 102380 80
2001-10-29 11:44 51°15.257 2°30.417 0.3 103 14 102380 81
2001-10-29 11:45 51°15.411 2°30.732 1.4 164 14 102370 81
2001-10-29 11:46 51°15.566 2°31.049 1.4 62 13.9 102370 80
2001-10-29 11:47 51°15.716 2°31.359 0.8 317 13.9 102370 80
2001-10-29 11:48 51°15.871 2°31.683 1.4 133 13.8 102360 79
2001-10-29 11:49 51°16.013 2°32.013 1.6 87 13.9 102380 81
2001-10-29 11:50 51°16.102 2°32.381 0.4 291 13.9 102380 81
2001-10-29 11:51 51°16.119 2°32.764 2.2 192 14 102380 81
2001-10-29 11:52 51°16.066 2°33.131 4.5 212 14 102390 80
2001-10-29 11:53 51°15.948 2°33.447 6.6 265 14 102380 79
2001-10-29 11:54 51°15.772 2°33.674 6.4 247 13.9 102370 80
2001-10-29 11:55 51°15.625 2°33.947 8.1 240 13.9 102370 80
2001-10-29 11:56 51°15.461 2°34.196 7.5 249 13.9 102360 80
2001-10-29 11:57 51°15.314 2°34.462 4.6 199 13.9 102350 80
2001-10-29 11:58 51°15.339 2°34.818 2.1 83 13.9 102370 81
2001-10-29 11:59 51°15.493 2°35.131 1.6 326 14 102380 80
2001-10-29 12:00 51°15.687 2°35.373 4.2 92 13.9 102370 79
2001-10-29 12:01 51°15.875 2°35.634 1.4 124 13.9 102370 79
2001-10-29 12:02 51°16.071 2°35.883 0.8 331 13.9 102380 80
2001-10-29 12:03 51°16.263 2°36.142 2.4 285 14 102370 80
2001-10-29 12:04 51°16.455 2°36.397 3.4 133 14 102370 80
2001-10-29 12:05 51°16.648 2°36.649 2.6 227 14 102380 80
2001-10-29 12:06 51°16.843 2°36.905 1.5 158 13.9 102380 79
2001-10-29 12:07 51°17.059 2°37.07 7.1 317 14 102370 80
2001-10-29 12:08 51°17.294 2°37.082 11 25 14 102350 80
2001-10-29 12:09 51°17.531 2°37.082 8.4 29 14 102370 80
2001-10-29 12:10 51°17.763 2°37.062 10.8 19 14 102350 80
2001-10-29 12:11 51°17.995 2°37.042 9.5 3 14 102330 80
2001-10-29 12:12 51°18.225 2°37.012 9.3 342 14 102340 80
2001-10-29 12:13 51°18.453 2°36.996 9.4 24 14 102320 80
2001-10-29 12:14 51°18.679 2°36.972 11.4 14 13.9 102320 80
2001-10-29 12:15 51°18.907 2°36.948 8.3 352 13.9 102310 80
2001-10-29 12:16 51°19.136 2°36.932 7.2 29 13.9 102310 80
2001-10-29 12:17 51°19.368 2°36.911 10.5 35 13.9 102300 80
2001-10-29 12:18 51°19.603 2°36.955 5.8 95 13.9 102310 79
2001-10-29 12:19 51°19.811 2°37.152 1.3 342 13.9 102340 80
2001-10-29 12:20 51°19.975 2°37.44 1.2 158 13.9 102350 80
2001-10-29 12:21 51°20.147 2°37.709 1.2 75 13.9 102350 80
2001-10-29 12:22 51°20.323 2°37.977 1.2 73 13.9 102330 79
2001-10-29 12:23 51°20.489 2°38.264 0.7 108 13.9 102340 80
2001-10-29 12:24 51°20.658 2°38.545 0.9 93 13.9 102330 81
2001-10-29 12:25 51°20.821 2°38.834 1.1 118 13.9 102330 80
2001-10-29 12:26 51°20.965 2°39.141 0.4 100 13.8 102330 79
2001-10-29 12:27 51°21.004 2°39.507 2.7 243 13.9 102330 80
2001-10-29 12:28 51°20.97 2°39.87 4.5 222 13.9 102320 79
2001-10-29 12:29 51°20.913 2°40.239 2.9 203 13.9 102330 80
2001-10-29 12:30 51°20.876 2°40.602 3.8 224 14 102330 80
2001-10-29 12:31 51°20.811 2°40.968 5.3 255 14 102330 79
2001-10-29 12:32 51°20.755 2°41.332 3 225 13.9 102330 79
2001-10-29 12:33 51°20.696 2°41.698 4 240 14 102330 81
2001-10-29 12:34 51°20.636 2°42.062 3.8 215 14 102330 80
2001-10-29 12:35 51°20.577 2°42.425 3.2 253 14 102340 80
2001-10-29 12:36 51°20.513 2°42.787 4.3 133 14 102340 80
2001-10-29 12:37 51°20.457 2°43.145 3.6 217 14 102330 80
2001-10-29 12:38 51°20.394 2°43.506 3.1 216 14 102320 80
2001-10-29 12:39 51°20.335 2°43.865 2.7 214 14 102320 79
2001-10-29 12:40 51°20.279 2°44.223 2.4 215 14 102320 80
2001-10-29 12:41 51°20.219 2°44.587 3 222 14.1 102320 80
2001-10-29 12:42 51°20.163 2°44.951 3.2 228 14.1 102320 80
2001-10-29 12:43 51°20.107 2°45.315 2.7 251 14.1 102320 80
2001-10-29 12:44 51°20.053 2°45.679 4.5 249 14.1 102320 80
2001-10-29 12:45 51°19.994 2°46.039 6.5 261 14.1 102330 79
2001-10-29 12:46 51°19.901 2°46.376 5.2 234 14.1 102310 79
2001-10-29 12:47 51°19.79 2°46.695 5.4 258 14.1 102320 80
2001-10-29 12:48 51°19.681 2°47.011 6.9 259 14.1 102320 81
2001-10-29 12:49 51°19.568 2°47.322 7.1 254 14.1 102310 81
2001-10-29 12:50 51°19.445 2°47.626 7.3 258 14 102320 80
2001-10-29 12:51 51°19.328 2°47.931 6.9 253 14 102310 81
2001-10-29 12:52 51°19.208 2°48.239 5 265 14 102320 81
2001-10-29 12:53 51°19.089 2°48.541 5.8 268 14 102320 82
2001-10-29 12:54 51°18.97 2°48.845 7 257 14 102330 82
2001-10-29 12:55 51°18.849 2°49.143 5 266 14 102320 82
2001-10-29 12:56 51°18.726 2°49.441 7.1 254 13.9 102330 82
2001-10-29 12:57 51°18.603 2°49.739 5.3 275 14 102320 82
2001-10-29 12:58 51°18.481 2°50.041 7.2 248 13.9 102320 82
2001-10-29 12:59 51°18.354 2°50.336 6.9 258 13.9 102320 82
2001-10-29 13:00 51°18.223 2°50.622 6.9 258 13.9 102320 83
2001-10-29 13:01 51°18.095 2°50.913 7 260 13.9 102330 82
2001-10-29 13:02 51°17.963 2°51.197 7.5 256 13.8 102330 81
2001-10-29 13:03 51°17.835 2°51.484 6.4 247 13.9 102330 80
2001-10-29 13:04 51°17.705 2°51.76 7.4 250 13.9 102340 81
2001-10-29 13:05 51°17.556 2°52.011 6.5 265 13.9 102330 81
2001-10-29 13:06 51°17.386 2°52.219 8.5 287 13.9 102320 81
2001-10-29 13:07 51°17.208 2°52.416 6.8 259 13.9 102310 81
2001-10-29 13:08 51°17.024 2°52.598 7 277 13.9 102300 81
2001-10-29 13:09 51°16.838 2°52.779 9.3 274 14 102310 81
2001-10-29 13:10 51°16.655 2°52.967 8.2 275 14 102310 81
2001-10-29 13:11 51°16.47 2°53.154 9 289 14 102310 81
2001-10-29 13:12 51°16.286 2°53.339 8.9 276 14 102290 80
2001-10-29 13:13 51°16.099 2°53.522 9.2 278 14 102300 81
2001-10-29 13:14 51°15.913 2°53.708 8.4 273 14.1 102300 81
2001-10-29 13:15 51°15.728 2°53.892 7.5 273 14 102290 79
2001-10-29 13:16 51°15.539 2°54.073 6.5 270 14 102290 79
2001-10-29 13:17 51°15.35 2°54.251 8.7 274 14.1 102300 81
2001-10-29 13:18 51°15.162 2°54.433 7.4 263 14.1 102290 79
2001-10-29 13:19 51°14.97 2°54.59 10.8 283 14.1 102300 81
2001-10-29 13:20 51°14.815 2°54.709 7.5 268 14.1 102290 80
2001-10-29 13:21 51°14.711 2°54.784 7.1 259 14.1 102300 80
2001-10-29 13:22 51°14.614 2°54.837 7.3 264 14.1 102300 81
2001-10-29 13:23 51°14.455 2°54.956 7.6 265 14.1 102300 80
2001-10-29 13:24 51°14.321 2°55.146 3.5 282 14.1 102310 81
2001-10-29 13:25 51°14.196 2°55.356 9 294 14.1 102320 79
2001-10-29 13:26 51°14.049 2°55.468 3.8 329 14.1 102320 77
2001-10-29 13:27 51°13.92 2°55.563 3.2 323 14.1 102330 77
2001-10-29 13:28 51°13.823 2°55.635 2.8 317 14.2 102330 77
2001-10-29 13:29 51°13.754 2°55.707 2.6 219 14.3 102340 77
2001-10-29 13:30 51°13.717 2°55.786 4.2 220 14.3 102340 77
2001-10-29 13:31 51°13.688 2°55.849 4.7 200 14.3 102340 77
2001-10-29 13:32 51°13.665 2°55.914 3.5 192 14.3 102330 77
2001-10-29 13:33 51°13.651 2°55.979 4.2 183 14.3 102320 77
2001-10-29 13:34 51°13.644 2°55.999 5.5 196 14.4 102320 76
2001-10-29 13:35 51°13.639 2°56.004 4.6 177 14.4 102320 76